KGSO/GSO METAR and TAF weather

Enter ICAO airport designator
Station Type Date Time Source
KGSO METAR 2019/06/27 09:54 UTC NOAA

KGSO 270954Z 28003KT 10SM SCT250 21/19 A3019 RMK AO2 SLP211 T02110189


Station Type Date Time Source
KGSO Decoded METAR 2019/06/27 09:54 UTC NOAA

PIEDMONT TRIAD INTERNATIONAL AIRPORT , NC, United States (KGSO) 36-06N 079-57W 275M
Jun 27, 2019 - 05:54 AM EDT / 2019.06.27 0954 UTC
Wind: from the W (280 degrees) at 3 MPH (3 KT):0
Visibility: 10 mile(s):0
Sky conditions: partly cloudy
Temperature: 70.0 F (21.1 C)
Dew Point: 66.0 F (18.9 C)
Relative Humidity: 87%
Pressure (altimeter): 30.19 in. Hg (1022 hPa)
ob: KGSO 270954Z 28003KT 10SM SCT250 21/19 A3019 RMK AO2 SLP211 T02110189
cycle: 10

Station Type Date Time Source
KGSO TAF 2019/06/27 06:42 UTC NOAA

TAF KGSO 270540Z 2706/2806 VRB05KT P6SM BKN250
FM271200 02005KT P6SM SCT250
FM271800 VRB04KT P6SM SCT050 BKN200
FM280300 20003KT P6SM BKN250

Example: see airport list